Stewart, Texas
Current Conditions -  °F | °C
As of 4:55 PM on Tuesday 27 Jan 2015 (Local Time) from KRFI Reporting Station
Clear Clear  
Wind Chill: 75°   Ceiling: Unl
Heat Index: 75°   Visibility: 10mi
Dew Point: 38°   Wind: 0mph
Humidity: 26%   Direction: NA
Pressure: 30.11"   Gusts: NA
Location:  32.1449°N, 94.7416°W
Report Text: KRFI 272255Z AUTO 00000KT 10SM CLR 24/04 A3011 RMK AO2 T02400035
Loading
Personal Weather Stations






























Interactive Weather Map New forecast layout! Learn more

10-Day Weather Forecast

Advertisements
Track Severe Weather on mobile